sensor_id;sensor_type;location;lat;lon;timestamp;pressure;altitude;pressure_sealevel;temperature;humidity
14902;BME280;7542;49.078;9.194;2023-07-31T00:00:32;98618.28;;;31.17;32.25
14902;BME280;7542;49.078;9.194;2023-07-31T00:01:34;98615.03;;;31.15;32.06
14902;BME280;7542;49.078;9.194;2023-07-31T00:02:36;98606.91;;;31.15;32.15
14902;BME280;7542;49.078;9.194;2023-07-31T00:03:38;98613.44;;;31.14;32.37
14902;BME280;7542;49.078;9.194;2023-07-31T00:04:40;98614.25;;;31.14;32.27
14902;BME280;7542;49.078;9.194;2023-07-31T00:05:42;98607.53;;;31.12;32.13
14902;BME280;7542;49.078;9.194;2023-07-31T00:06:44;98612.16;;;31.11;32.64
14902;BME280;7542;49.078;9.194;2023-07-31T00:07:47;98619.47;;;31.11;32.56
14902;BME280;7542;49.078;9.194;2023-07-31T00:08:49;98608.63;;;31.11;32.34
14902;BME280;7542;49.078;9.194;2023-07-31T00:09:51;98617.38;;;31.08;32.12
14902;BME280;7542;49.078;9.194;2023-07-31T00:10:53;98611.16;;;31.07;32.24
14902;BME280;7542;49.078;9.194;2023-07-31T00:11:55;98610.06;;;31.08;32.73
14902;BME280;7542;49.078;9.194;2023-07-31T00:12:57;98612.75;;;31.08;32.42
14902;BME280;7542;49.078;9.194;2023-07-31T00:13:59;98606.84;;;31.06;32.55
14902;BME280;7542;49.078;9.194;2023-07-31T00:15:02;98612.25;;;31.06;32.28
14902;BME280;7542;49.078;9.194;2023-07-31T00:16:04;98609.88;;;31.05;32.43
14902;BME280;7542;49.078;9.194;2023-07-31T00:17:06;98610.94;;;31.04;32.48
14902;BME280;7542;49.078;9.194;2023-07-31T00:18:09;98605.03;;;31.02;32.66
14902;BME280;7542;49.078;9.194;2023-07-31T00:19:12;98600.72;;;31.01;32.77
14902;BME280;7542;49.078;9.194;2023-07-31T00:20:14;98605.03;;;31.02;32.83
14902;BME280;7542;49.078;9.194;2023-07-31T00:21:16;98606.13;;;31.01;32.46
14902;BME280;7542;49.078;9.194;2023-07-31T00:22:19;98601.03;;;30.99;32.63
14902;BME280;7542;49.078;9.194;2023-07-31T00:23:21;98599.13;;;31.00;32.51
14902;BME280;7542;49.078;9.194;2023-07-31T00:24:23;98603.25;;;30.97;32.44
14902;BME280;7542;49.078;9.194;2023-07-31T00:25:25;98603.25;;;30.97;32.64
14902;BME280;7542;49.078;9.194;2023-07-31T00:26:27;98600.53;;;30.97;32.82
14902;BME280;7542;49.078;9.194;2023-07-31T00:27:29;98601.66;;;30.96;32.52
14902;BME280;7542;49.078;9.194;2023-07-31T00:28:31;98600.34;;;30.94;32.83
14902;BME280;7542;49.078;9.194;2023-07-31T00:29:34;98600.34;;;30.94;32.97
14902;BME280;7542;49.078;9.194;2023-07-31T00:30:35;98599.53;;;30.93;32.67
14902;BME280;7542;49.078;9.194;2023-07-31T00:31:38;98599.81;;;30.92;32.82
14902;BME280;7542;49.078;9.194;2023-07-31T00:32:40;98597.91;;;30.92;32.83
14902;BME280;7542;49.078;9.194;2023-07-31T00:33:42;98599.81;;;30.92;32.74
14902;BME280;7542;49.078;9.194;2023-07-31T00:34:44;98602.53;;;30.92;32.86
14902;BME280;7542;49.078;9.194;2023-07-31T00:35:48;98605.25;;;30.92;32.88
14902;BME280;7542;49.078;9.194;2023-07-31T00:36:50;98600.13;;;30.90;32.57
14902;BME280;7542;49.078;9.194;2023-07-31T00:37:52;98601.25;;;30.89;32.91
14902;BME280;7542;49.078;9.194;2023-07-31T00:38:54;98605.06;;;30.88;32.71
14902;BME280;7542;49.078;9.194;2023-07-31T00:39:56;98606.97;;;30.87;33.00
14902;BME280;7542;49.078;9.194;2023-07-31T00:40:58;98610.78;;;30.86;32.79
14902;BME280;7542;49.078;9.194;2023-07-31T00:42:00;98604.56;;;30.86;32.88
14902;BME280;7542;49.078;9.194;2023-07-31T00:43:03;98606.47;;;30.85;32.75
14902;BME280;7542;49.078;9.194;2023-07-31T00:44:05;98600.25;;;30.85;32.88
14902;BME280;7542;49.078;9.194;2023-07-31T00:45:07;98599.44;;;30.84;32.83
14902;BME280;7542;49.078;9.194;2023-07-31T00:46:09;98604.06;;;30.84;32.72
14902;BME280;7542;49.078;9.194;2023-07-31T00:47:11;98601.34;;;30.84;32.75
14902;BME280;7542;49.078;9.194;2023-07-31T00:48:13;98605.19;;;30.83;32.59
14902;BME280;7542;49.078;9.194;2023-07-31T00:49:16;98601.94;;;30.81;32.68
14902;BME280;7542;49.078;9.194;2023-07-31T00:50:18;98606.56;;;30.80;33.12
14902;BME280;7542;49.078;9.194;2023-07-31T00:51:21;98598.44;;;30.80;33.16
14902;BME280;7542;49.078;9.194;2023-07-31T00:52:23;98606.56;;;30.80;33.31
14902;BME280;7542;49.078;9.194;2023-07-31T00:53:25;98606.84;;;30.79;33.02
14902;BME280;7542;49.078;9.194;2023-07-31T00:54:28;98601.75;;;30.77;32.61
14902;BME280;7542;49.078;9.194;2023-07-31T00:55:30;98596.34;;;30.77;33.03
14902;BME280;7542;49.078;9.194;2023-07-31T00:56:33;98600.66;;;30.78;32.70
14902;BME280;7542;49.078;9.194;2023-07-31T00:57:38;98590.91;;;30.77;32.81
14902;BME280;7542;49.078;9.194;2023-07-31T00:58:41;98592.03;;;30.76;33.11
14902;BME280;7542;49.078;9.194;2023-07-31T00:59:43;98592.34;;;30.75;33.04
14902;BME280;7542;49.078;9.194;2023-07-31T01:00:45;98590.44;;;30.75;32.92
14902;BME280;7542;49.078;9.194;2023-07-31T01:01:47;98588.81;;;30.74;33.22
14902;BME280;7542;49.078;9.194;2023-07-31T01:02:51;98585.31;;;30.74;32.78
14902;BME280;7542;49.078;9.194;2023-07-31T01:03:54;98582.91;;;30.72;32.93
14902;BME280;7542;49.078;9.194;2023-07-31T01:04:56;98584.78;;;30.72;33.00
14902;BME280;7542;49.078;9.194;2023-07-31T01:06:52;98588.50;;;30.90;32.75
14902;BME280;7542;49.078;9.194;2023-07-31T01:08:10;98594.63;;;30.81;32.94
14902;BME280;7542;49.078;9.194;2023-07-31T01:09:31;98594.63;;;30.81;32.88
14902;BME280;7542;49.078;9.194;2023-07-31T01:10:49;98592.22;;;30.80;32.84
14902;BME280;7542;49.078;9.194;2023-07-31T01:12:03;98589.31;;;30.76;32.75
14902;BME280;7542;49.078;9.194;2023-07-31T01:13:05;98589.72;;;30.70;32.74
14902;BME280;7542;49.078;9.194;2023-07-31T01:14:08;98584.91;;;30.67;32.64
14902;BME280;7542;49.078;9.194;2023-07-31T01:15:10;98580.09;;;30.64;32.95
14902;BME280;7542;49.078;9.194;2023-07-31T01:16:17;98582.81;;;30.64;32.90
14902;BME280;7542;49.078;9.194;2023-07-31T01:17:19;98577.69;;;30.62;33.16
14902;BME280;7542;49.078;9.194;2023-07-31T01:18:21;98581.50;;;30.61;32.73
14902;BME280;7542;49.078;9.194;2023-07-31T01:19:26;98575.25;;;30.60;32.65
14902;BME280;7542;49.078;9.194;2023-07-31T01:20:34;98578.78;;;30.61;33.04
14902;BME280;7542;49.078;9.194;2023-07-31T01:23:39;98572.38;;;30.71;32.50
14902;BME280;7542;49.078;9.194;2023-07-31T01:26:28;98568.97;;;30.65;32.83
14902;BME280;7542;49.078;9.194;2023-07-31T01:27:41;98569.34;;;30.58;32.78
14902;BME280;7542;49.078;9.194;2023-07-31T01:29:02;98570.66;;;30.61;32.50
14902;BME280;7542;49.078;9.194;2023-07-31T01:30:22;98559.00;;;30.60;32.83
14902;BME280;7542;49.078;9.194;2023-07-31T01:31:29;98560.53;;;30.53;32.92
14902;BME280;7542;49.078;9.194;2023-07-31T01:32:33;98560.03;;;30.51;32.73
14902;BME280;7542;49.078;9.194;2023-07-31T01:33:37;98562.53;;;30.47;32.99
14902;BME280;7542;49.078;9.194;2023-07-31T01:34:41;98560.63;;;30.48;32.61
14902;BME280;7542;49.078;9.194;2023-07-31T01:35:48;98561.13;;;30.50;32.61
14902;BME280;7542;49.078;9.194;2023-07-31T01:36:50;98557.41;;;30.46;33.11
14902;BME280;7542;49.078;9.194;2023-07-31T01:37:53;98562.34;;;30.44;32.73
14902;BME280;7542;49.078;9.194;2023-07-31T01:39:02;98555.22;;;30.48;33.25
14902;BME280;7542;49.078;9.194;2023-07-31T01:40:08;98559.31;;;30.45;32.66
14902;BME280;7542;49.078;9.194;2023-07-31T01:41:10;98559.63;;;30.44;33.11
14902;BME280;7542;49.078;9.194;2023-07-31T01:42:12;98555.63;;;30.41;33.21
14902;BME280;7542;49.078;9.194;2023-07-31T01:43:14;98549.91;;;30.43;33.28
14902;BME280;7542;49.078;9.194;2023-07-31T01:44:16;98559.44;;;30.40;33.08
14902;BME280;7542;49.078;9.194;2023-07-31T01:45:18;98552.38;;;30.39;33.12
14902;BME280;7542;49.078;9.194;2023-07-31T01:46:21;98558.63;;;30.40;33.24
14902;BME280;7542;49.078;9.194;2023-07-31T01:47:23;98563.75;;;30.41;33.05
14902;BME280;7542;49.078;9.194;2023-07-31T01:48:25;98552.38;;;30.39;33.14
14902;BME280;7542;49.078;9.194;2023-07-31T01:49:27;98562.94;;;30.41;33.44
14902;BME280;7542;49.078;9.194;2023-07-31T01:50:29;98557.81;;;30.39;32.82
14902;BME280;7542;49.078;9.194;2023-07-31T01:51:31;98558.09;;;30.38;33.00
14902;BME280;7542;49.078;9.194;2023-07-31T01:52:36;98546.19;;;30.39;33.07
14902;BME280;7542;49.078;9.194;2023-07-31T01:53:39;98555.41;;;30.38;33.60
14902;BME280;7542;49.078;9.194;2023-07-31T01:54:41;98543.78;;;30.37;33.43
14902;BME280;7542;49.078;9.194;2023-07-31T01:55:43;98544.09;;;30.36;33.12
14902;BME280;7542;49.078;9.194;2023-07-31T01:56:45;98551.09;;;30.37;33.22
14902;BME280;7542;49.078;9.194;2023-07-31T01:57:47;98551.91;;;30.37;33.40
14902;BME280;7542;49.078;9.194;2023-07-31T01:58:50;98545.69;;;30.37;33.41
14902;BME280;7542;49.078;9.194;2023-07-31T01:59:52;98542.47;;;30.35;32.91
14902;BME280;7542;49.078;9.194;2023-07-31T02:00:55;98540.56;;;30.35;33.33
14902;BME280;7542;49.078;9.194;2023-07-31T02:01:57;98551.41;;;30.35;33.23
14902;BME280;7542;49.078;9.194;2023-07-31T02:02:59;98545.50;;;30.33;33.38
14902;BME280;7542;49.078;9.194;2023-07-31T02:04:02;98542.78;;;30.33;33.01
14902;BME280;7542;49.078;9.194;2023-07-31T02:05:05;98549.00;;;30.34;33.00
14902;BME280;7542;49.078;9.194;2023-07-31T02:06:07;98541.00;;;30.28;33.37
14902;BME280;7542;49.078;9.194;2023-07-31T02:07:09;98545.19;;;30.35;33.25
14902;BME280;7542;49.078;9.194;2023-07-31T02:08:10;98535.78;;;30.32;32.98
14902;BME280;7542;49.078;9.194;2023-07-31T02:09:13;98537.19;;;30.29;32.86
14902;BME280;7542;49.078;9.194;2023-07-31T02:10:15;98535.28;;;30.30;32.81
14902;BME280;7542;49.078;9.194;2023-07-31T02:11:18;98531.78;;;30.29;33.45
14902;BME280;7542;49.078;9.194;2023-07-31T02:12:20;98529.06;;;30.29;32.84
14902;BME280;7542;49.078;9.194;2023-07-31T02:13:22;98536.09;;;30.30;32.80
14902;BME280;7542;49.078;9.194;2023-07-31T02:14:24;98526.63;;;30.28;33.07
14902;BME280;7542;49.078;9.194;2023-07-31T02:15:27;98530.19;;;30.28;33.07
14902;BME280;7542;49.078;9.194;2023-07-31T02:16:28;98522.34;;;30.27;33.16
14902;BME280;7542;49.078;9.194;2023-07-31T02:17:31;98525.34;;;30.25;32.93
14902;BME280;7542;49.078;9.194;2023-07-31T02:18:33;98527.75;;;30.27;33.46
14902;BME280;7542;49.078;9.194;2023-07-31T02:19:35;98523.44;;;30.26;33.31
14902;BME280;7542;49.078;9.194;2023-07-31T02:20:37;98528.34;;;30.24;33.32
14902;BME280;7542;49.078;9.194;2023-07-31T02:21:39;98529.94;;;30.25;33.42
14902;BME280;7542;49.078;9.194;2023-07-31T02:22:41;98527.56;;;30.23;32.94
14902;BME280;7542;49.078;9.194;2023-07-31T02:23:43;98528.34;;;30.24;33.36
14902;BME280;7542;49.078;9.194;2023-07-31T02:24:45;98531.34;;;30.22;33.50
14902;BME280;7542;49.078;9.194;2023-07-31T02:25:47;98525.94;;;30.22;33.43
14902;BME280;7542;49.078;9.194;2023-07-31T02:26:49;98519.25;;;30.20;33.26
14902;BME280;7542;49.078;9.194;2023-07-31T02:27:51;98528.16;;;30.20;33.44
14902;BME280;7542;49.078;9.194;2023-07-31T02:28:53;98526.56;;;30.19;33.07
14902;BME280;7542;49.078;9.194;2023-07-31T02:29:55;98525.75;;;30.19;32.98
14902;BME280;7542;49.078;9.194;2023-07-31T02:30:58;98524.94;;;30.18;33.41
14902;BME280;7542;49.078;9.194;2023-07-31T02:32:00;98513.34;;;30.18;33.04
14902;BME280;7542;49.078;9.194;2023-07-31T02:33:03;98517.13;;;30.17;32.90
14902;BME280;7542;49.078;9.194;2023-07-31T02:34:05;98520.63;;;30.17;33.13
14902;BME280;7542;49.078;9.194;2023-07-31T02:35:08;98521.72;;;30.16;32.88
14902;BME280;7542;49.078;9.194;2023-07-31T02:36:10;98510.91;;;30.16;32.83
14902;BME280;7542;49.078;9.194;2023-07-31T02:37:11;98519.31;;;30.15;32.80
14902;BME280;7542;49.078;9.194;2023-07-31T02:38:13;98519.31;;;30.15;32.79
14902;BME280;7542;49.078;9.194;2023-07-31T02:39:15;98519.03;;;30.16;32.87
14902;BME280;7542;49.078;9.194;2023-07-31T02:40:17;98515.50;;;30.16;32.90
14902;BME280;7542;49.078;9.194;2023-07-31T02:41:19;98513.13;;;30.14;33.27
14902;BME280;7542;49.078;9.194;2023-07-31T02:42:21;98508.81;;;30.13;33.38
14902;BME280;7542;49.078;9.194;2023-07-31T02:43:23;98508.00;;;30.13;32.83
14902;BME280;7542;49.078;9.194;2023-07-31T02:44:25;98507.50;;;30.11;32.93
14902;BME280;7542;49.078;9.194;2023-07-31T02:45:28;98515.00;;;30.14;33.27
14902;BME280;7542;49.078;9.194;2023-07-31T02:46:30;98504.81;;;30.11;33.31
14902;BME280;7542;49.078;9.194;2023-07-31T02:47:32;98504.81;;;30.11;33.23
14902;BME280;7542;49.078;9.194;2023-07-31T02:48:34;98500.50;;;30.10;33.33
14902;BME280;7542;49.078;9.194;2023-07-31T02:49:36;98501.31;;;30.10;32.88
14902;BME280;7542;49.078;9.194;2023-07-31T02:50:38;98498.09;;;30.08;33.13
14902;BME280;7542;49.078;9.194;2023-07-31T02:51:40;98509.41;;;30.10;33.39
14902;BME280;7542;49.078;9.194;2023-07-31T02:52:42;98500.28;;;30.06;33.32
14902;BME280;7542;49.078;9.194;2023-07-31T02:53:44;98501.06;;;30.07;33.04
14902;BME280;7542;49.078;9.194;2023-07-31T02:54:47;98510.25;;;30.06;32.79
14902;BME280;7542;49.078;9.194;2023-07-31T02:55:49;98508.38;;;30.06;33.12
14902;BME280;7542;49.078;9.194;2023-07-31T02:56:51;98504.84;;;30.06;32.84
14902;BME280;7542;49.078;9.194;2023-07-31T02:57:53;98504.84;;;30.06;32.89
14902;BME280;7542;49.078;9.194;2023-07-31T02:58:55;98506.25;;;30.03;33.10
14902;BME280;7542;49.078;9.194;2023-07-31T02:59:57;98502.75;;;30.02;33.38
14902;BME280;7542;49.078;9.194;2023-07-31T03:00:59;98508.16;;;30.02;33.18
14902;BME280;7542;49.078;9.194;2023-07-31T03:02:02;98507.38;;;30.02;32.98
14902;BME280;7542;49.078;9.194;2023-07-31T03:03:04;98508.16;;;30.02;33.36
14902;BME280;7542;49.078;9.194;2023-07-31T03:04:06;98507.06;;;30.03;33.05
14902;BME280;7542;49.078;9.194;2023-07-31T03:05:08;98507.66;;;30.00;32.89
14902;BME280;7542;49.078;9.194;2023-07-31T03:06:10;98503.06;;;30.01;32.79
14902;BME280;7542;49.078;9.194;2023-07-31T03:07:12;98510.69;;;29.99;33.02
14902;BME280;7542;49.078;9.194;2023-07-31T03:08:15;98511.16;;;30.01;32.99
14902;BME280;7542;49.078;9.194;2023-07-31T03:09:17;98502.25;;;30.00;33.41
14902;BME280;7542;49.078;9.194;2023-07-31T03:10:19;98517.19;;;29.98;32.94
14902;BME280;7542;49.078;9.194;2023-07-31T03:11:21;98509.88;;;29.98;33.48
14902;BME280;7542;49.078;9.194;2023-07-31T03:12:23;98501.75;;;29.98;33.50
14902;BME280;7542;49.078;9.194;2023-07-31T03:13:25;98509.06;;;29.98;33.09
14902;BME280;7542;49.078;9.194;2023-07-31T03:14:27;98514.47;;;29.98;33.45
14902;BME280;7542;49.078;9.194;2023-07-31T03:15:30;98513.69;;;29.97;32.92
14902;BME280;7542;49.078;9.194;2023-07-31T03:16:32;98510.19;;;29.97;33.22
14902;BME280;7542;49.078;9.194;2023-07-31T03:17:34;98512.88;;;29.97;32.98
14902;BME280;7542;49.078;9.194;2023-07-31T03:18:36;98508.56;;;29.96;33.46
14902;BME280;7542;49.078;9.194;2023-07-31T03:19:39;98500.47;;;29.96;33.44
14902;BME280;7542;49.078;9.194;2023-07-31T03:20:44;98502.34;;;29.95;33.47
14902;BME280;7542;49.078;9.194;2023-07-31T03:21:46;98503.44;;;29.94;33.33
14902;BME280;7542;49.078;9.194;2023-07-31T03:22:48;98503.44;;;29.94;33.26
14902;BME280;7542;49.078;9.194;2023-07-31T03:23:50;98505.34;;;29.94;33.59
14902;BME280;7542;49.078;9.194;2023-07-31T03:24:52;98506.44;;;29.93;33.42
14902;BME280;7542;49.078;9.194;2023-07-31T03:25:58;98503.44;;;29.94;33.31
14902;BME280;7542;49.078;9.194;2023-07-31T03:27:01;98501.84;;;29.93;33.18
14902;BME280;7542;49.078;9.194;2023-07-31T03:28:03;98511.84;;;29.93;33.03
14902;BME280;7542;49.078;9.194;2023-07-31T03:29:05;98504.03;;;29.91;33.69
14902;BME280;7542;49.078;9.194;2023-07-31T03:30:07;98503.53;;;29.89;33.27
14902;BME280;7542;49.078;9.194;2023-07-31T03:31:10;98505.94;;;29.91;33.32
14902;BME280;7542;49.078;9.194;2023-07-31T03:32:13;98502.75;;;29.89;33.68
14902;BME280;7542;49.078;9.194;2023-07-31T03:33:15;98507.06;;;29.90;33.74
14902;BME280;7542;49.078;9.194;2023-07-31T03:34:17;98496.25;;;29.90;33.54
14902;BME280;7542;49.078;9.194;2023-07-31T03:35:19;98500.84;;;29.89;33.43
14902;BME280;7542;49.078;9.194;2023-07-31T03:36:21;98494.63;;;29.89;33.81
14902;BME280;7542;49.078;9.194;2023-07-31T03:37:23;98501.16;;;29.88;33.60
14902;BME280;7542;49.078;9.194;2023-07-31T03:38:25;98501.16;;;29.88;33.64
14902;BME280;7542;49.078;9.194;2023-07-31T03:39:27;98507.66;;;29.87;33.28
14902;BME280;7542;49.078;9.194;2023-07-31T03:40:30;98503.03;;;29.87;33.81
14902;BME280;7542;49.078;9.194;2023-07-31T03:41:32;98511.97;;;29.88;33.46
14902;BME280;7542;49.078;9.194;2023-07-31T03:42:35;98507.66;;;29.87;33.77
14902;BME280;7542;49.078;9.194;2023-07-31T03:43:37;98506.84;;;29.86;33.78
14902;BME280;7542;49.078;9.194;2023-07-31T03:44:40;98516.88;;;29.86;33.54
14902;BME280;7542;49.078;9.194;2023-07-31T03:45:42;98516.06;;;29.85;33.26
14902;BME280;7542;49.078;9.194;2023-07-31T03:46:44;98515.22;;;29.85;33.59
14902;BME280;7542;49.078;9.194;2023-07-31T03:47:46;98507.44;;;29.83;33.55
14902;BME280;7542;49.078;9.194;2023-07-31T03:48:49;98508.22;;;29.84;33.36
14902;BME280;7542;49.078;9.194;2023-07-31T03:49:51;98507.44;;;29.83;33.51
14902;BME280;7542;49.078;9.194;2023-07-31T03:50:53;98506.63;;;29.83;33.61
14902;BME280;7542;49.078;9.194;2023-07-31T03:51:55;98498.03;;;29.81;33.64
14902;BME280;7542;49.078;9.194;2023-07-31T03:52:57;98505.03;;;29.82;33.83
14902;BME280;7542;49.078;9.194;2023-07-31T03:53:59;98499.63;;;29.82;33.11
14902;BME280;7542;49.078;9.194;2023-07-31T03:55:02;98498.03;;;29.81;33.27
14902;BME280;7542;49.078;9.194;2023-07-31T03:56:04;98497.22;;;29.80;33.72
14902;BME280;7542;49.078;9.194;2023-07-31T03:57:06;98497.22;;;29.80;33.63
14902;BME280;7542;49.078;9.194;2023-07-31T03:58:08;98497.53;;;29.79;33.64
14902;BME280;7542;49.078;9.194;2023-07-31T03:59:10;98494.81;;;29.79;33.72
14902;BME280;7542;49.078;9.194;2023-07-31T04:00:12;98494.00;;;29.78;33.57
14902;BME280;7542;49.078;9.194;2023-07-31T04:01:14;98487.50;;;29.79;33.26
14902;BME280;7542;49.078;9.194;2023-07-31T04:02:16;98489.41;;;29.79;33.18
14902;BME280;7542;49.078;9.194;2023-07-31T04:03:20;98498.63;;;29.78;33.32
14902;BME280;7542;49.078;9.194;2023-07-31T04:04:23;98493.22;;;29.78;33.67
14902;BME280;7542;49.078;9.194;2023-07-31T04:05:25;98498.91;;;29.76;33.66
14902;BME280;7542;49.078;9.194;2023-07-31T04:06:27;98493.50;;;29.76;33.56
14902;BME280;7542;49.078;9.194;2023-07-31T04:07:29;98495.41;;;29.76;33.24
14902;BME280;7542;49.078;9.194;2023-07-31T04:08:31;98497.31;;;29.75;33.53
14902;BME280;7542;49.078;9.194;2023-07-31T04:09:33;98505.69;;;29.73;33.35
14902;BME280;7542;49.078;9.194;2023-07-31T04:10:35;98501.41;;;29.72;33.21
14902;BME280;7542;49.078;9.194;2023-07-31T04:11:37;98503.31;;;29.72;33.83
14902;BME280;7542;49.078;9.194;2023-07-31T04:12:40;98504.09;;;29.72;33.34
14902;BME280;7542;49.078;9.194;2023-07-31T04:13:42;98504.09;;;29.72;33.72
14902;BME280;7542;49.078;9.194;2023-07-31T04:14:44;98509.00;;;29.70;33.34
14902;BME280;7542;49.078;9.194;2023-07-31T04:15:50;98504.91;;;29.73;33.72
14902;BME280;7542;49.078;9.194;2023-07-31T04:16:53;98502.50;;;29.71;33.18
14902;BME280;7542;49.078;9.194;2023-07-31T04:17:55;98506.31;;;29.70;33.18
14902;BME280;7542;49.078;9.194;2023-07-31T04:18:57;98496.59;;;29.69;33.20
14902;BME280;7542;49.078;9.194;2023-07-31T04:19:59;98502.81;;;29.70;33.26
14902;BME280;7542;49.078;9.194;2023-07-31T04:21:01;98503.91;;;29.69;33.82
14902;BME280;7542;49.078;9.194;2023-07-31T04:22:04;98508.19;;;29.70;33.28
14902;BME280;7542;49.078;9.194;2023-07-31T04:23:06;98506.59;;;29.69;33.35
14902;BME280;7542;49.078;9.194;2023-07-31T04:24:09;98503.09;;;29.68;33.72
14902;BME280;7542;49.078;9.194;2023-07-31T04:25:11;98503.91;;;29.69;33.60
14902;BME280;7542;49.078;9.194;2023-07-31T04:26:13;98509.59;;;29.67;33.62
14902;BME280;7542;49.078;9.194;2023-07-31T04:27:15;98505.00;;;29.68;33.41
14902;BME280;7542;49.078;9.194;2023-07-31T04:28:18;98512.31;;;29.67;33.92
14902;BME280;7542;49.078;9.194;2023-07-31T04:29:20;98513.41;;;29.66;33.56
14902;BME280;7542;49.078;9.194;2023-07-31T04:30:22;98496.41;;;29.66;33.82
14902;BME280;7542;49.078;9.194;2023-07-31T04:31:24;98501.31;;;29.64;33.65
14902;BME280;7542;49.078;9.194;2023-07-31T04:32:26;98502.59;;;29.66;33.39
14902;BME280;7542;49.078;9.194;2023-07-31T04:33:28;98492.38;;;29.63;34.00
14902;BME280;7542;49.078;9.194;2023-07-31T04:34:30;98504.00;;;29.64;33.28
14902;BME280;7542;49.078;9.194;2023-07-31T04:35:32;98505.31;;;29.66;33.45
14902;BME280;7542;49.078;9.194;2023-07-31T04:36:35;98502.09;;;29.64;33.54
14902;BME280;7542;49.078;9.194;2023-07-31T04:37:37;98503.19;;;29.63;33.51
14902;BME280;7542;49.078;9.194;2023-07-31T04:38:40;98491.56;;;29.63;33.66
14902;BME280;7542;49.078;9.194;2023-07-31T04:39:43;98495.09;;;29.63;33.45
14902;BME280;7542;49.078;9.194;2023-07-31T04:40:45;98496.16;;;29.62;33.86
14902;BME280;7542;49.078;9.194;2023-07-31T04:41:47;98497.78;;;29.63;33.53
14902;BME280;7542;49.078;9.194;2023-07-31T04:42:49;98484.56;;;29.62;33.82
14902;BME280;7542;49.078;9.194;2023-07-31T04:43:52;98486.47;;;29.61;33.65
14902;BME280;7542;49.078;9.194;2023-07-31T04:44:54;98488.34;;;29.61;33.74
14902;BME280;7542;49.078;9.194;2023-07-31T04:45:56;98486.75;;;29.60;33.53
14902;BME280;7542;49.078;9.194;2023-07-31T04:46:58;98481.34;;;29.60;33.40
14902;BME280;7542;49.078;9.194;2023-07-31T04:48:01;98493.25;;;29.59;34.02
14902;BME280;7542;49.078;9.194;2023-07-31T04:49:03;98485.66;;;29.61;33.98
14902;BME280;7542;49.078;9.194;2023-07-31T04:50:06;98488.66;;;29.59;33.34
14902;BME280;7542;49.078;9.194;2023-07-31T04:51:08;98484.34;;;29.58;33.57
14902;BME280;7542;49.078;9.194;2023-07-31T04:52:11;98488.66;;;29.59;33.74
14902;BME280;7542;49.078;9.194;2023-07-31T04:53:13;98490.25;;;29.60;33.70
14902;BME280;7542;49.078;9.194;2023-07-31T04:54:15;98489.75;;;29.58;33.85
14902;BME280;7542;49.078;9.194;2023-07-31T04:55:17;98491.66;;;29.58;33.59
14902;BME280;7542;49.078;9.194;2023-07-31T04:56:19;98491.66;;;29.58;33.44
14902;BME280;7542;49.078;9.194;2023-07-31T04:57:21;98490.84;;;29.57;33.72
14902;BME280;7542;49.078;9.194;2023-07-31T04:58:22;98490.84;;;29.57;33.76
14902;BME280;7542;49.078;9.194;2023-07-31T04:59:24;98483.06;;;29.56;33.94
14902;BME280;7542;49.078;9.194;2023-07-31T05:00:27;98483.84;;;29.56;33.90
14902;BME280;7542;49.078;9.194;2023-07-31T05:01:28;98489.25;;;29.56;33.44
14902;BME280;7542;49.078;9.194;2023-07-31T05:02:30;98480.66;;;29.54;33.95
14902;BME280;7542;49.078;9.194;2023-07-31T05:03:33;98481.44;;;29.55;33.47
14902;BME280;7542;49.078;9.194;2023-07-31T05:04:35;98489.25;;;29.56;33.91
14902;BME280;7542;49.078;9.194;2023-07-31T05:05:37;98484.16;;;29.55;33.89
14902;BME280;7542;49.078;9.194;2023-07-31T05:06:40;98475.25;;;29.54;33.89
14902;BME280;7542;49.078;9.194;2023-07-31T05:07:42;98471.44;;;29.55;33.54
14902;BME280;7542;49.078;9.194;2023-07-31T05:08:44;98471.44;;;29.55;33.79
14902;BME280;7542;49.078;9.194;2023-07-31T05:09:46;98470.66;;;29.55;33.52
14902;BME280;7542;49.078;9.194;2023-07-31T05:10:49;98474.16;;;29.55;34.00
14902;BME280;7542;49.078;9.194;2023-07-31T05:11:51;98479.56;;;29.55;33.80
14902;BME280;7542;49.078;9.194;2023-07-31T05:12:53;98466.03;;;29.55;34.05
14902;BME280;7542;49.078;9.194;2023-07-31T05:13:55;98477.94;;;29.54;34.25
14902;BME280;7542;49.078;9.194;2023-07-31T05:14:57;98476.34;;;29.53;34.15
14902;BME280;7542;49.078;9.194;2023-07-31T05:15:59;98469.84;;;29.54;34.19
14902;BME280;7542;49.078;9.194;2023-07-31T05:17:04;98471.44;;;29.55;34.13
14902;BME280;7542;49.078;9.194;2023-07-31T05:18:06;98472.53;;;29.54;34.00
14902;BME280;7542;49.078;9.194;2023-07-31T05:19:08;98475.25;;;29.54;33.99
14902;BME280;7542;49.078;9.194;2023-07-31T05:20:10;98474.16;;;29.55;34.47
14902;BME280;7542;49.078;9.194;2023-07-31T05:21:13;98472.53;;;29.54;34.62
14902;BME280;7542;49.078;9.194;2023-07-31T05:22:15;98478.75;;;29.55;34.07
14902;BME280;7542;49.078;9.194;2023-07-31T05:23:17;98472.53;;;29.54;34.56
14902;BME280;7542;49.078;9.194;2023-07-31T05:24:19;98467.16;;;29.54;34.78
14902;BME280;7542;49.078;9.194;2023-07-31T05:25:21;98467.16;;;29.54;34.62
14902;BME280;7542;49.078;9.194;2023-07-31T05:26:23;98470.66;;;29.55;34.52
14902;BME280;7542;49.078;9.194;2023-07-31T05:27:25;98464.44;;;29.54;34.59
14902;BME280;7542;49.078;9.194;2023-07-31T05:28:27;98463.63;;;29.54;34.69
14902;BME280;7542;49.078;9.194;2023-07-31T05:29:29;98466.34;;;29.54;34.33
14902;BME280;7542;49.078;9.194;2023-07-31T05:30:31;98470.94;;;29.53;34.47
14902;BME280;7542;49.078;9.194;2023-07-31T05:31:33;98469.31;;;29.52;34.63
14902;BME280;7542;49.078;9.194;2023-07-31T05:32:35;98468.25;;;29.53;34.63
14902;BME280;7542;49.078;9.194;2023-07-31T05:33:37;98472.53;;;29.54;34.47
14902;BME280;7542;49.078;9.194;2023-07-31T05:34:39;98479.56;;;29.55;34.91
14902;BME280;7542;49.078;9.194;2023-07-31T05:35:41;98479.06;;;29.53;34.98
14902;BME280;7542;49.078;9.194;2023-07-31T05:36:43;98479.06;;;29.53;35.10
14902;BME280;7542;49.078;9.194;2023-07-31T05:37:45;98478.25;;;29.53;35.10
14902;BME280;7542;49.078;9.194;2023-07-31T05:38:47;98480.66;;;29.54;35.18
14902;BME280;7542;49.078;9.194;2023-07-31T05:39:49;98469.84;;;29.54;34.95
14902;BME280;7542;49.078;9.194;2023-07-31T05:40:51;98474.16;;;29.55;35.00